Adamstown, Maryland
Current Conditions -  °F | °C
As of 10:46 AM on Friday 31 Oct 2014 (Local Time) from KFDK Reporting Station
Overcast Overcast  
Wind Chill: 54°   Ceiling: 6000
Heat Index: 54°   Visibility: 10mi
Dew Point: 39°   Wind: 5mph
Humidity: 58%   Direction: NA
Pressure: 30.02"   Gusts: NA
Location:  39.31°N, 77.47°W
Report Text: KFDK 311446Z VRB04KT 10SM OVC060 12/04 A3002
Loading
Personal Weather Stations






























Interactive Weather Map
Tropical Storm Tracking
New forecast layout! Learn more

10-Day Weather Forecast

Advertisements
Track Severe Weather on mobile